首页
METAR-TAF:

METAR-TAF

机场 :

烏爾根奇國際機場

烏爾根奇, 乌兹别克斯坦

纬度: 41-35N, 经度: 060-38-42E, 海拔: 98米

当前天气观测

该预报发布于16分钟前的16:30 UTC
风速4节,风向西
温度 31°C
湿度 31%
气压 1006 hPa
能見度: 7000

METAR: UTNU 261630Z 28004KT 7000 NSC 31/12 Q1006 R31/CLRD70 NOSIG

时间: 21:46 (16:46 UTC)

预报

该预报发布于5小时和46分钟前的11:00 UTC
预报有效从26日的 12点(UTC)到 27日的 12点(UTC)
风速8节,风向西北,有时为18节阵风
能见度10公里或以上
1500米以下无云,无积雨云
短暂存在
从 26日的 18点(UTC)到 27日的 04点(UTC)
风速4节,风向多变

TAF: UTNU 261100Z 2612/2712 32008G18KT CAVOK TEMPO 2618/2704 VRB04KT

超过4000个机场的气象观测和天气预报(METAR&TAF报告)。

可查询的气象台以黄色和红色小点在地图上表示。

将鼠标移到小点上方,可查看气象台名称。

然后点击查看天气观测和预报。

如需切换地图:点击带黑十字的绿色按钮放大地图;点击带横线的绿色按钮缩小地图;或者点击绿色箭头查看邻近地区的地图。


METAR-TAF: